createdAt,value
2022-11-25T00:00:50.375Z,96884.22
2022-11-25T00:03:34.036Z,96877.69
2022-11-25T00:06:12.829Z,96893.94
2022-11-25T00:08:41.529Z,96892.78
2022-11-25T00:11:15.435Z,96894.47
2022-11-25T00:13:48.243Z,96891.22
2022-11-25T00:16:21.511Z,96896.47
2022-11-25T00:18:55.915Z,96898.50
2022-11-25T00:21:29.172Z,96895.88
2022-11-25T00:23:58.710Z,96896.31
2022-11-25T00:26:28.608Z,96888.47
2022-11-25T00:28:58.218Z,96898.69
2022-11-25T00:31:28.716Z,96899.66
2022-11-25T00:33:56.629Z,96891.09
2022-11-25T00:36:25.335Z,96897.88
2022-11-25T00:39:01.412Z,96888.25
2022-11-25T00:41:47.723Z,96886.81
2022-11-25T00:44:38.309Z,96887.06
2022-11-25T00:47:12.172Z,96895.63
2022-11-25T00:49:40.953Z,96893.72
2022-11-25T00:52:08.904Z,96901.44
2022-11-25T00:54:36.387Z,96900.34
2022-11-25T00:57:03.840Z,96902.75
2022-11-25T00:59:31.495Z,96899.47
2022-11-25T01:01:58.745Z,96893.03
2022-11-25T01:04:26.011Z,96894.44
2022-11-25T01:06:54.419Z,96898.94
2022-11-25T01:09:21.362Z,96900.63
2022-11-25T01:11:51.340Z,96902.75
2022-11-25T01:14:19.458Z,96909.66
2022-11-25T01:16:46.802Z,96912.16
2022-11-25T01:19:14.321Z,96910.81
2022-11-25T01:21:41.670Z,96906.94
2022-11-25T01:24:09.260Z,96911.69
2022-11-25T01:26:36.522Z,96909.91
2022-11-25T01:29:12.636Z,96914.88
2022-11-25T01:31:42.581Z,96908.81
2022-11-25T01:34:25.362Z,96910.84
2022-11-25T01:36:58.302Z,96915.38
2022-11-25T01:39:33.162Z,96920.38
2022-11-25T01:42:07.119Z,96910.25
2022-11-25T01:44:39.542Z,96904.34
2022-11-25T01:47:24.706Z,96910.41
2022-11-25T01:50:02.944Z,96906.81
2022-11-25T01:52:45.267Z,96912.88
2022-11-25T01:55:30.132Z,96912.78
2022-11-25T01:58:04.096Z,96915.16
2022-11-25T02:00:31.755Z,96914.88
2022-11-25T02:03:03.194Z,96912.25
2022-11-25T02:06:02.439Z,96920.09
2022-11-25T02:08:33.653Z,96917.16
2022-11-25T02:11:05.289Z,96915.72
2022-11-25T02:13:34.350Z,96918.22
2022-11-25T02:16:03.659Z,96908.00
2022-11-25T02:18:33.369Z,96918.22
2022-11-25T02:21:03.502Z,96913.44
2022-11-25T02:23:45.810Z,96907.75
2022-11-25T02:26:24.049Z,96918.44
2022-11-25T02:28:52.086Z,96917.84
2022-11-25T02:31:23.111Z,96918.44
2022-11-25T02:33:51.574Z,96919.78
2022-11-25T02:36:30.266Z,96924.44
2022-11-25T02:39:10.802Z,96915.16
2022-11-25T02:41:55.396Z,96921.69
2022-11-25T02:44:22.862Z,96922.75
2022-11-25T02:46:55.974Z,96920.28
2022-11-25T02:49:23.324Z,96918.09
2022-11-25T02:51:51.274Z,96920.84
2022-11-25T02:54:21.685Z,96919.44
2022-11-25T02:56:51.005Z,96920.84
2022-11-25T02:59:21.115Z,96927.38
2022-11-25T03:01:48.775Z,96923.34
2022-11-25T03:04:19.352Z,96924.66
2022-11-25T03:06:49.608Z,96925.63
2022-11-25T03:09:19.443Z,96935.59
2022-11-25T03:12:08.605Z,96936.31
2022-11-25T03:14:38.737Z,96937.84
2022-11-25T03:17:08.886Z,96929.19
2022-11-25T03:19:43.168Z,96930.13
2022-11-25T03:22:13.584Z,96937.16
2022-11-25T03:24:48.132Z,96930.13
2022-11-25T03:27:15.434Z,96940.34
2022-11-25T03:29:42.556Z,96946.41
2022-11-25T03:32:10.392Z,96941.19
2022-11-25T03:34:43.596Z,96940.34
2022-11-25T03:37:11.158Z,96942.00
2022-11-25T03:39:38.191Z,96943.06
2022-11-25T03:42:05.323Z,96948.31
2022-11-25T03:44:32.514Z,96948.91
2022-11-25T03:46:59.888Z,96933.94
2022-11-25T03:49:29.796Z,96951.78
2022-11-25T03:51:57.318Z,96942.47
2022-11-25T03:54:25.232Z,96948.66
2022-11-25T03:56:52.298Z,96956.13
2022-11-25T03:59:19.546Z,96954.13
2022-11-25T04:01:46.784Z,96954.13
2022-11-25T04:04:14.535Z,96959.34
2022-11-25T04:06:51.922Z,96965.78
2022-11-25T04:09:37.647Z,96968.28
2022-11-25T04:13:11.909Z,96968.41
2022-11-25T04:16:08.718Z,96968.41
2022-11-25T04:18:56.736Z,96967.22
2022-11-25T04:24:35.220Z,96972.22
2022-11-25T04:27:29.702Z,96967.81
2022-11-25T04:33:39.068Z,96980.78
2022-11-25T04:39:36.846Z,96988.72
2022-11-25T04:42:28.863Z,96992.44
2022-11-25T04:45:28.783Z,96984.31
2022-11-25T04:48:04.277Z,96984.59
2022-11-25T04:50:34.704Z,96986.25
2022-11-25T04:53:01.749Z,96985.19
2022-11-25T04:56:21.356Z,96988.72
2022-11-25T04:59:26.074Z,97000.38
2022-11-25T05:02:27.385Z,97005.97
2022-11-25T05:04:56.810Z,97004.78
2022-11-25T05:07:25.717Z,97006.19
2022-11-25T05:09:56.208Z,97012.03
2022-11-25T05:12:48.437Z,97015.59
2022-11-25T05:15:52.744Z,97016.19
2022-11-25T05:18:22.705Z,97022.13
2022-11-25T05:20:49.769Z,97026.41
2022-11-25T05:23:16.794Z,97033.16
2022-11-25T05:25:43.869Z,97033.91
2022-11-25T05:28:20.668Z,97032.34
2022-11-25T05:30:47.836Z,97041.59
2022-11-25T05:33:15.156Z,97044.22
2022-11-25T05:35:42.173Z,97050.41
2022-11-25T05:38:09.168Z,97053.75
2022-11-25T05:40:36.310Z,97060.63
2022-11-25T05:43:04.078Z,97051.84
2022-11-25T05:45:31.250Z,97059.22
2022-11-25T05:47:58.446Z,97063.25
2022-11-25T05:50:28.800Z,97059.69
2022-11-25T05:52:55.834Z,97069.31
2022-11-25T05:55:22.930Z,97076.66
2022-11-25T05:57:50.461Z,97078.56
2022-11-25T06:00:20.980Z,97072.50
2022-11-25T06:02:51.361Z,97078.22
2022-11-25T06:05:20.036Z,97088.66
2022-11-25T06:07:47.416Z,97094.50
2022-11-25T06:10:15.004Z,97095.09
2022-11-25T06:12:41.919Z,97103.16
2022-11-25T06:15:09.634Z,97100.44
2022-11-25T06:17:36.783Z,97102.94
2022-11-25T06:20:07.993Z,97108.06
2022-11-25T06:22:35.015Z,97119.59
2022-11-25T06:25:03.997Z,97127.44
2022-11-25T06:27:50.146Z,97129.22
2022-11-25T06:30:19.316Z,97136.50
2022-11-25T06:32:46.545Z,97139.78
2022-11-25T06:35:13.610Z,97131.47
2022-11-25T06:37:40.668Z,97141.34
2022-11-25T06:40:08.480Z,97145.38
2022-11-25T06:42:35.636Z,97150.97
2022-11-25T06:45:02.931Z,97163.22
2022-11-25T06:47:29.971Z,97152.63
2022-11-25T06:49:57.024Z,97156.41
2022-11-25T06:52:24.048Z,97164.47
2022-11-25T06:54:51.804Z,97164.00
2022-11-25T06:57:20.081Z,97167.22
2022-11-25T06:59:47.147Z,97161.38
2022-11-25T07:02:15.162Z,97178.72
2022-11-25T07:04:42.022Z,97162.00
2022-11-25T07:07:09.616Z,97164.47
2022-11-25T07:09:37.126Z,97168.50
2022-11-25T07:12:06.069Z,97174.72
2022-11-25T07:14:33.011Z,97172.31
2022-11-25T07:17:00.035Z,97175.91
2022-11-25T07:19:26.940Z,97175.22
2022-11-25T07:21:54.033Z,97175.22
2022-11-25T07:24:20.916Z,97175.22
2022-11-25T07:26:47.791Z,97170.84
2022-11-25T07:29:51.638Z,97187.38
2022-11-25T07:32:10.051Z,97181.53
2022-11-25T07:34:37.599Z,97202.69
2022-11-25T07:37:04.485Z,97201.75
2022-11-25T07:39:31.500Z,97208.53
2022-11-25T07:41:58.380Z,97209.13
2022-11-25T07:44:25.494Z,97214.97
2022-11-25T07:46:52.514Z,97215.41
2022-11-25T07:49:21.968Z,97214.44
2022-11-25T07:51:54.733Z,97217.34
2022-11-25T07:54:23.016Z,97217.78
2022-11-25T07:56:51.061Z,97223.03
2022-11-25T07:59:18.973Z,97234.69
2022-11-25T08:01:46.208Z,97227.06
2022-11-25T08:04:19.776Z,97222.06
2022-11-25T08:06:49.753Z,97232.19
2022-11-25T08:09:19.892Z,97222.66
2022-11-25T08:11:48.992Z,97240.16
2022-11-25T08:14:16.851Z,97237.56
2022-11-25T08:16:43.954Z,97234.13
2022-11-25T08:19:14.473Z,97228.31
2022-11-25T08:21:41.900Z,97247.16
2022-11-25T08:24:16.590Z,97234.75
2022-11-25T08:26:44.016Z,97238.81
2022-11-25T08:29:16.966Z,97252.63
2022-11-25T08:31:44.337Z,97248.94
2022-11-25T08:34:19.287Z,97262.38
2022-11-25T08:36:48.497Z,97257.25
2022-11-25T08:39:51.363Z,97272.50
2022-11-25T08:42:04.838Z,97256.53
2022-11-25T08:44:32.101Z,97268.09
2022-11-25T08:46:59.085Z,97268.09
2022-11-25T08:49:27.290Z,97270.34
2022-11-25T08:51:54.201Z,97279.88
2022-11-25T08:54:21.145Z,97268.84
2022-11-25T08:56:48.226Z,97268.81
2022-11-25T08:59:15.396Z,97270.34
2022-11-25T09:01:42.409Z,97261.44
2022-11-25T09:04:09.459Z,97273.22
2022-11-25T09:06:36.330Z,97271.78
2022-11-25T09:09:06.349Z,97269.16
2022-11-25T09:11:33.516Z,97261.03
2022-11-25T09:14:02.936Z,97274.03
2022-11-25T09:16:30.283Z,97279.28
2022-11-25T09:18:57.484Z,97255.09
2022-11-25T09:21:25.427Z,97264.25
2022-11-25T09:23:54.161Z,97261.41
2022-11-25T09:26:27.076Z,97267.84
2022-11-25T09:28:54.952Z,97267.41
2022-11-25T09:31:23.437Z,97262.03
2022-11-25T09:33:50.881Z,97265.47
2022-11-25T09:36:19.197Z,97270.00
2022-11-25T09:38:46.595Z,97251.66
2022-11-25T09:41:47.723Z,97257.59
2022-11-25T09:44:57.869Z,97257.09
2022-11-25T09:47:54.286Z,97269.94
2022-11-25T09:50:45.223Z,97267.03
2022-11-25T09:53:35.838Z,97263.22
2022-11-25T09:56:04.965Z,97257.72
2022-11-25T09:58:42.050Z,97272.34
2022-11-25T10:01:17.515Z,97261.59
2022-11-25T10:03:50.503Z,97256.84
2022-11-25T10:06:34.887Z,97267.38
2022-11-25T10:09:22.861Z,97268.22
2022-11-25T10:12:05.702Z,97267.13
2022-11-25T10:14:42.539Z,97270.72
2022-11-25T10:17:42.441Z,97268.16
2022-11-25T10:20:18.592Z,97264.41
2022-11-25T10:22:59.690Z,97268.47
2022-11-25T10:25:40.085Z,97266.53
2022-11-25T10:28:20.370Z,97268.47
2022-11-25T10:30:53.410Z,97272.03
2022-11-25T10:33:25.150Z,97256.56
2022-11-25T10:36:06.932Z,97268.25
2022-11-25T10:38:44.434Z,97268.13
2022-11-25T10:41:19.325Z,97253.22
2022-11-25T10:43:48.086Z,97255.81
2022-11-25T10:46:57.069Z,97267.03
2022-11-25T10:49:30.349Z,97254.22
2022-11-25T10:52:00.120Z,97263.38
2022-11-25T10:54:29.182Z,97261.50
2022-11-25T10:57:01.888Z,97260.22
2022-11-25T10:59:37.776Z,97264.72
2022-11-25T11:02:23.913Z,97252.00
2022-11-25T11:05:03.322Z,97259.59
2022-11-25T11:07:34.118Z,97256.94
2022-11-25T11:10:23.525Z,97251.16
2022-11-25T11:13:04.058Z,97259.34
2022-11-25T11:15:47.323Z,97242.03
2022-11-25T11:18:39.047Z,97246.78
2022-11-25T11:21:08.809Z,97244.66
2022-11-25T11:23:51.523Z,97233.75
2022-11-25T11:26:27.768Z,97253.28
2022-11-25T11:29:08.430Z,97255.84
2022-11-25T11:31:41.228Z,97229.44
2022-11-25T11:34:42.168Z,97241.22
2022-11-25T11:37:27.756Z,97243.41
2022-11-25T11:40:16.410Z,97240.50
2022-11-25T11:43:02.572Z,97231.00
2022-11-25T11:45:58.034Z,97228.41
2022-11-25T11:48:53.241Z,97231.97
2022-11-25T11:51:40.691Z,97231.16
2022-11-25T11:54:16.435Z,97228.09
2022-11-25T11:57:03.570Z,97223.25
2022-11-25T11:59:51.724Z,97229.13
2022-11-25T12:02:43.511Z,97224.28
2022-11-25T12:05:10.385Z,97221.34
2022-11-25T12:08:05.850Z,97220.53
2022-11-25T12:10:43.735Z,97219.56
2022-11-25T12:13:25.371Z,97218.84
2022-11-25T12:16:01.168Z,97207.25
2022-11-25T12:18:55.421Z,97216.59
2022-11-25T12:21:42.247Z,97225.25
2022-11-25T12:24:47.948Z,97230.88
2022-11-25T12:27:23.633Z,97227.81
2022-11-25T12:30:16.917Z,97228.66
2022-11-25T12:33:06.641Z,97234.44
2022-11-25T12:36:03.414Z,97228.09
2022-11-25T12:38:56.307Z,97233.81
2022-11-25T12:44:42.653Z,97243.03
2022-11-25T12:47:12.975Z,97248.84
2022-11-25T12:49:47.451Z,97231.78
2022-11-25T12:52:51.475Z,97247.25
2022-11-25T12:55:30.060Z,97243.69
2022-11-25T12:58:36.352Z,97247.56
2022-11-25T13:01:09.224Z,97259.38
2022-11-25T13:04:01.278Z,97258.53
2022-11-25T13:06:59.225Z,97264.25
2022-11-25T13:09:44.847Z,97266.69
2022-11-25T13:12:30.804Z,97269.47
2022-11-25T13:15:13.536Z,97280.66
2022-11-25T13:17:44.022Z,97272.44
2022-11-25T13:20:29.479Z,97262.84
2022-11-25T13:23:05.649Z,97270.69
2022-11-25T13:25:33.712Z,97278.66
2022-11-25T13:28:02.091Z,97271.69
2022-11-25T13:30:34.833Z,97276.41
2022-11-25T13:33:13.787Z,97285.97
2022-11-25T13:35:43.469Z,97289.94
2022-11-25T13:38:48.046Z,97291.63
2022-11-25T13:41:29.196Z,97287.97
2022-11-25T13:44:16.375Z,97294.91
2022-11-25T13:46:49.853Z,97305.88
2022-11-25T13:49:52.567Z,97305.19
2022-11-25T13:52:19.413Z,97303.53
2022-11-25T13:54:53.951Z,97306.69
2022-11-25T13:57:25.837Z,97307.75
2022-11-25T13:59:57.118Z,97315.00
2022-11-25T14:02:30.692Z,97316.81
2022-11-25T14:05:07.303Z,97321.69
2022-11-25T14:07:37.439Z,97327.03
2022-11-25T14:10:26.922Z,97320.72
2022-11-25T14:13:09.921Z,97323.00
2022-11-25T14:15:55.663Z,97318.09
2022-11-25T14:22:11.299Z,97321.66
2022-11-25T14:25:19.321Z,97331.69
2022-11-25T14:28:40.310Z,97327.88
2022-11-25T14:32:35.577Z,97330.72
2022-11-25T14:35:34.229Z,97322.88
2022-11-25T14:38:16.855Z,97326.69
2022-11-25T14:40:54.402Z,97337.03
2022-11-25T14:43:29.264Z,97343.38
2022-11-25T14:46:18.445Z,97350.25
2022-11-25T14:48:52.975Z,97343.69
2022-11-25T14:51:29.319Z,97349.66
2022-11-25T14:54:02.923Z,97349.66
2022-11-25T14:56:33.515Z,97350.03
2022-11-25T14:59:05.954Z,97356.56
2022-11-25T15:02:04.556Z,97357.41
2022-11-25T15:04:34.664Z,97362.75
2022-11-25T15:07:06.187Z,97355.28
2022-11-25T15:09:39.961Z,97357.75
2022-11-25T15:12:22.174Z,97370.88
2022-11-25T15:14:53.298Z,97367.56
2022-11-25T15:17:33.305Z,97374.09
2022-11-25T15:20:12.796Z,97367.41
2022-11-25T15:22:40.079Z,97379.78
2022-11-25T15:25:14.346Z,97380.28
2022-11-25T15:27:46.755Z,97383.22
2022-11-25T15:30:23.812Z,97382.63
2022-11-25T15:32:52.574Z,97384.91
2022-11-25T15:35:22.247Z,97383.19
2022-11-25T15:37:50.238Z,97389.72
2022-11-25T15:40:49.562Z,97390.19
2022-11-25T15:43:31.738Z,97379.66
2022-11-25T15:46:26.182Z,97393.16
2022-11-25T15:49:23.590Z,97385.66
2022-11-25T15:52:15.399Z,97389.34
2022-11-25T15:54:55.351Z,97394.19
2022-11-25T15:57:24.117Z,97395.69
2022-11-25T15:59:55.305Z,97394.97
2022-11-25T16:02:40.607Z,97396.03
2022-11-25T16:05:56.146Z,97392.28
2022-11-25T16:08:35.647Z,97402.69
2022-11-25T16:11:21.554Z,97393.59
2022-11-25T16:13:51.595Z,97398.34
2022-11-25T16:16:32.750Z,97407.56
2022-11-25T16:19:03.082Z,97407.34
2022-11-25T16:21:45.182Z,97409.88
2022-11-25T16:24:24.300Z,97420.88
2022-11-25T16:27:07.082Z,97418.91
2022-11-25T16:29:41.135Z,97433.09
2022-11-25T16:32:17.236Z,97427.44
2022-11-25T16:34:44.734Z,97428.69
2022-11-25T16:37:12.483Z,97432.66
2022-11-25T16:39:42.224Z,97424.09
2022-11-25T16:42:17.902Z,97419.59
2022-11-25T16:44:49.202Z,97434.25
2022-11-25T16:47:16.964Z,97429.94
2022-11-25T16:49:44.469Z,97432.44
2022-11-25T16:52:11.430Z,97436.09
2022-11-25T16:54:39.527Z,97438.81
2022-11-25T16:59:54.569Z,97436.81
2022-11-25T17:02:40.104Z,97449.94
2022-11-25T17:05:23.675Z,97451.84
2022-11-25T17:07:58.803Z,97447.84
2022-11-25T17:10:40.594Z,97449.50
2022-11-25T17:13:26.567Z,97454.53
2022-11-25T17:15:55.269Z,97456.84
2022-11-25T17:18:26.916Z,97456.75
2022-11-25T17:20:54.116Z,97450.97
2022-11-25T17:23:22.725Z,97454.53
2022-11-25T17:25:51.316Z,97460.59
2022-11-25T17:28:22.223Z,97470.19
2022-11-25T17:31:21.173Z,97467.06
2022-11-25T17:33:57.461Z,97460.78
2022-11-25T17:36:25.346Z,97470.63
2022-11-25T17:38:53.580Z,97465.16
2022-11-25T17:41:27.472Z,97473.56
2022-11-25T17:43:56.559Z,97470.19
2022-11-25T17:46:28.860Z,97476.56
2022-11-25T17:48:56.057Z,97477.69
2022-11-25T17:51:23.274Z,97477.69
2022-11-25T17:53:50.503Z,97483.09
2022-11-25T17:56:26.362Z,97476.41
2022-11-25T17:58:54.139Z,97481.31
2022-11-25T18:01:21.846Z,97479.13
2022-11-25T18:03:52.598Z,97493.94
2022-11-25T18:06:20.149Z,97488.94
2022-11-25T18:08:47.826Z,97493.22
2022-11-25T18:11:34.062Z,97492.47
2022-11-25T18:14:01.422Z,97503.53
2022-11-25T18:16:29.857Z,97495.19
2022-11-25T18:18:58.639Z,97497.88
2022-11-25T18:21:26.784Z,97501.97
2022-11-25T18:23:59.556Z,97508.66
2022-11-25T18:27:01.254Z,97509.06
2022-11-25T18:29:28.434Z,97511.47
2022-11-25T18:31:57.102Z,97520.25
2022-11-25T18:34:25.396Z,97516.94
2022-11-25T18:36:53.417Z,97530.28
2022-11-25T18:39:21.124Z,97530.00
2022-11-25T18:41:50.116Z,97533.97
2022-11-25T18:44:26.242Z,97541.59
2022-11-25T18:46:54.894Z,97545.16
2022-11-25T18:49:24.409Z,97536.38
2022-11-25T18:51:52.716Z,97546.81
2022-11-25T18:54:20.020Z,97541.75
2022-11-25T18:56:51.890Z,97543.34
2022-11-25T18:59:28.698Z,97547.28
2022-11-25T19:01:56.354Z,97553.53
2022-11-25T19:04:23.692Z,97552.19
2022-11-25T19:06:55.020Z,97552.38
2022-11-25T19:09:22.799Z,97561.50
2022-11-25T19:11:52.855Z,97564.84
2022-11-25T19:14:19.800Z,97562.63
2022-11-25T19:16:47.014Z,97561.50
2022-11-25T19:19:17.591Z,97570.16
2022-11-25T19:21:44.740Z,97562.97
2022-11-25T19:24:21.214Z,97571.34
2022-11-25T19:26:56.859Z,97581.16
2022-11-25T19:29:31.109Z,97577.41
2022-11-25T19:32:02.554Z,97574.50
2022-11-25T19:34:35.738Z,97581.38
2022-11-25T19:37:03.564Z,97573.28
2022-11-25T19:39:35.582Z,97582.56
2022-11-25T19:42:10.014Z,97582.56
2022-11-25T19:44:37.481Z,97587.56
2022-11-25T19:47:15.108Z,97589.47
2022-11-25T19:49:43.481Z,97591.03
2022-11-25T19:52:22.564Z,97590.63
2022-11-25T19:54:50.342Z,97582.06
2022-11-25T19:57:20.684Z,97592.59
2022-11-25T20:00:00.123Z,97588.13
2022-11-25T20:02:34.471Z,97597.75
2022-11-25T20:05:05.098Z,97590.09
2022-11-25T20:07:32.851Z,97584.13
2022-11-25T20:10:22.436Z,97597.00
2022-11-25T20:12:50.434Z,97590.09
2022-11-25T20:15:17.318Z,97592.53
2022-11-25T20:17:51.088Z,97586.03
2022-11-25T20:20:38.616Z,97589.66
2022-11-25T20:23:16.987Z,97583.28
2022-11-25T20:25:46.921Z,97584.94
2022-11-25T20:28:20.045Z,97590.47
2022-11-25T20:30:48.295Z,97583.66
2022-11-25T20:33:21.085Z,97587.59
2022-11-25T20:35:53.665Z,97585.75
2022-11-25T20:38:30.725Z,97580.53
2022-11-25T20:41:03.589Z,97585.94
2022-11-25T20:43:33.608Z,97579.88
2022-11-25T20:46:02.691Z,97588.44
2022-11-25T20:48:35.667Z,97585.31
2022-11-25T20:51:04.353Z,97582.63
2022-11-25T20:53:32.797Z,97593.34
2022-11-25T20:56:00.728Z,97592.44
2022-11-25T20:58:31.029Z,97590.34
2022-11-25T21:00:59.688Z,97591.09
2022-11-25T21:03:27.652Z,97591.81
2022-11-25T21:05:56.025Z,97601.88
2022-11-25T21:08:31.484Z,97600.50
2022-11-25T21:10:59.509Z,97607.69
2022-11-25T21:13:31.248Z,97613.47
2022-11-25T21:15:58.573Z,97619.81
2022-11-25T21:18:27.243Z,97619.91
2022-11-25T21:20:56.380Z,97609.19
2022-11-25T21:23:28.063Z,97620.16
2022-11-25T21:26:02.973Z,97616.59
2022-11-25T21:28:34.561Z,97620.34
2022-11-25T21:31:09.841Z,97626.53
2022-11-25T21:33:38.402Z,97625.69
2022-11-25T21:36:06.244Z,97624.00
2022-11-25T21:38:33.657Z,97627.75
2022-11-25T21:41:01.203Z,97622.78
2022-11-25T21:43:39.819Z,97638.44
2022-11-25T21:46:11.130Z,97632.28
2022-11-25T21:48:40.219Z,97642.91
2022-11-25T21:51:09.099Z,97639.56
2022-11-25T21:53:37.563Z,97649.06
2022-11-25T21:56:14.683Z,97655.59
2022-11-25T21:58:42.169Z,97648.50
2022-11-25T22:01:13.195Z,97651.84
2022-11-25T22:03:40.904Z,97643.81
2022-11-25T22:06:30.957Z,97659.78
2022-11-25T22:09:33.789Z,97663.22
2022-11-25T22:12:11.806Z,97661.56
2022-11-25T22:17:38.892Z,97673.53
2022-11-25T22:20:24.712Z,97672.50
2022-11-25T22:22:55.464Z,97672.69
2022-11-25T22:25:25.249Z,97668.50
2022-11-25T22:27:52.888Z,97666.63
2022-11-25T22:30:22.869Z,97666.00
2022-11-25T22:33:01.389Z,97664.09
2022-11-25T22:35:28.947Z,97666.19
2022-11-25T22:37:56.045Z,97671.13
2022-11-25T22:40:27.494Z,97678.78
2022-11-25T22:42:56.561Z,97681.56
2022-11-25T22:45:37.516Z,97679.25
2022-11-25T22:48:07.060Z,97675.66
2022-11-25T22:50:38.475Z,97684.31
2022-11-25T22:53:13.843Z,97683.03
2022-11-25T22:55:41.742Z,97689.66
2022-11-25T22:58:10.531Z,97688.34
2022-11-25T23:00:43.123Z,97685.72
2022-11-25T23:03:29.610Z,97688.50
2022-11-25T23:05:57.393Z,97702.25
2022-11-25T23:08:29.051Z,97697.59
2022-11-25T23:10:57.751Z,97702.94
2022-11-25T23:13:25.582Z,97709.09
2022-11-25T23:15:58.574Z,97708.28
2022-11-25T23:18:35.287Z,97720.47
2022-11-25T23:21:15.742Z,97708.66
2022-11-25T23:23:45.792Z,97712.38
2022-11-25T23:26:14.168Z,97715.56
2022-11-25T23:28:50.748Z,97715.06
2022-11-25T23:31:21.638Z,97718.84
2022-11-25T23:33:50.881Z,97718.38
2022-11-25T23:36:24.731Z,97719.63
2022-11-25T23:38:58.679Z,97724.22
2022-11-25T23:41:31.664Z,97724.06
2022-11-25T23:44:06.183Z,97727.16
2022-11-25T23:46:37.949Z,97727.41
2022-11-25T23:49:10.142Z,97728.81
2022-11-25T23:51:37.299Z,97725.47
2022-11-25T23:54:04.441Z,97723.66
2022-11-25T23:56:31.838Z,97728.13
2022-11-25T23:59:01.978Z,97728.53
